sensor_id;sensor_type;location;lat;lon;timestamp;P1;durP1;ratioP1;P2;durP2;ratioP2
35424;SDS011;21537;48.226;16.400;2022-08-21T00:02:18;2.80;;;2.60;;
35424;SDS011;21537;48.226;16.400;2022-08-21T00:04:46;4.00;;;2.47;;
35424;SDS011;21537;48.226;16.400;2022-08-21T00:07:12;3.25;;;2.83;;
35424;SDS011;21537;48.226;16.400;2022-08-21T00:09:39;3.30;;;2.67;;
35424;SDS011;21537;48.226;16.400;2022-08-21T00:12:05;4.07;;;2.47;;
35424;SDS011;21537;48.226;16.400;2022-08-21T00:14:32;2.88;;;2.58;;
35424;SDS011;21537;48.226;16.400;2022-08-21T00:16:59;2.65;;;2.42;;
35424;SDS011;21537;48.226;16.400;2022-08-21T00:19:26;3.08;;;2.50;;
35424;SDS011;21537;48.226;16.400;2022-08-21T00:21:53;3.10;;;2.63;;
35424;SDS011;21537;48.226;16.400;2022-08-21T00:24:19;2.95;;;2.60;;
35424;SDS011;21537;48.226;16.400;2022-08-21T00:26:46;2.53;;;2.33;;
35424;SDS011;21537;48.226;16.400;2022-08-21T00:29:12;2.40;;;2.20;;
35424;SDS011;21537;48.226;16.400;2022-08-21T00:31:39;3.22;;;2.40;;
35424;SDS011;21537;48.226;16.400;2022-08-21T00:34:06;2.50;;;2.30;;
35424;SDS011;21537;48.226;16.400;2022-08-21T00:36:33;3.85;;;2.80;;
35424;SDS011;21537;48.226;16.400;2022-08-21T00:38:59;3.20;;;2.90;;
35424;SDS011;21537;48.226;16.400;2022-08-21T00:41:25;3.38;;;2.83;;
35424;SDS011;21537;48.226;16.400;2022-08-21T00:43:52;4.18;;;3.10;;
35424;SDS011;21537;48.226;16.400;2022-08-21T00:46:18;4.05;;;3.30;;
35424;SDS011;21537;48.226;16.400;2022-08-21T00:48:44;4.65;;;3.63;;
35424;SDS011;21537;48.226;16.400;2022-08-21T00:51:15;4.22;;;3.60;;
35424;SDS011;21537;48.226;16.400;2022-08-21T00:53:48;4.53;;;3.60;;
35424;SDS011;21537;48.226;16.400;2022-08-21T00:56:19;8.07;;;3.58;;
35424;SDS011;21537;48.226;16.400;2022-08-21T00:58:48;4.63;;;3.97;;
35424;SDS011;21537;48.226;16.400;2022-08-21T01:01:15;5.55;;;3.30;;
35424;SDS011;21537;48.226;16.400;2022-08-21T01:03:41;4.00;;;3.53;;
35424;SDS011;21537;48.226;16.400;2022-08-21T01:06:07;5.53;;;3.78;;
35424;SDS011;21537;48.226;16.400;2022-08-21T01:08:34;5.97;;;3.40;;
35424;SDS011;21537;48.226;16.400;2022-08-21T01:11:00;5.72;;;4.07;;
35424;SDS011;21537;48.226;16.400;2022-08-21T01:13:28;5.68;;;3.95;;
35424;SDS011;21537;48.226;16.400;2022-08-21T01:15:58;3.70;;;3.20;;
35424;SDS011;21537;48.226;16.400;2022-08-21T01:18:26;3.97;;;3.55;;
35424;SDS011;21537;48.226;16.400;2022-08-21T01:21:09;4.50;;;3.83;;
35424;SDS011;21537;48.226;16.400;2022-08-21T01:23:44;3.22;;;2.92;;
35424;SDS011;21537;48.226;16.400;2022-08-21T01:26:14;5.32;;;4.07;;
35424;SDS011;21537;48.226;16.400;2022-08-21T01:28:44;4.82;;;3.95;;
35424;SDS011;21537;48.226;16.400;2022-08-21T01:31:15;4.80;;;4.10;;
35424;SDS011;21537;48.226;16.400;2022-08-21T01:33:44;5.82;;;4.35;;
35424;SDS011;21537;48.226;16.400;2022-08-21T01:36:10;4.53;;;3.58;;
35424;SDS011;21537;48.226;16.400;2022-08-21T01:38:36;5.45;;;3.88;;
35424;SDS011;21537;48.226;16.400;2022-08-21T01:41:02;5.35;;;3.72;;
35424;SDS011;21537;48.226;16.400;2022-08-21T01:43:28;6.25;;;4.13;;
35424;SDS011;21537;48.226;16.400;2022-08-21T01:45:53;4.57;;;3.95;;
35424;SDS011;21537;48.226;16.400;2022-08-21T01:48:19;4.35;;;3.88;;
35424;SDS011;21537;48.226;16.400;2022-08-21T01:50:45;4.68;;;4.13;;
35424;SDS011;21537;48.226;16.400;2022-08-21T01:53:11;5.55;;;4.10;;
35424;SDS011;21537;48.226;16.400;2022-08-21T01:55:36;5.40;;;3.83;;
35424;SDS011;21537;48.226;16.400;2022-08-21T01:58:02;6.20;;;3.40;;
35424;SDS011;21537;48.226;16.400;2022-08-21T02:00:28;3.78;;;3.38;;
35424;SDS011;21537;48.226;16.400;2022-08-21T02:02:54;3.42;;;3.13;;
35424;SDS011;21537;48.226;16.400;2022-08-21T02:05:21;3.25;;;2.95;;
35424;SDS011;21537;48.226;16.400;2022-08-21T02:07:48;5.20;;;3.30;;
35424;SDS011;21537;48.226;16.400;2022-08-21T02:10:17;5.60;;;3.17;;
35424;SDS011;21537;48.226;16.400;2022-08-21T02:12:46;3.67;;;3.08;;
35424;SDS011;21537;48.226;16.400;2022-08-21T02:15:11;4.05;;;3.38;;
35424;SDS011;21537;48.226;16.400;2022-08-21T02:17:51;4.03;;;3.53;;
35424;SDS011;21537;48.226;16.400;2022-08-21T02:20:22;4.53;;;2.60;;
35424;SDS011;21537;48.226;16.400;2022-08-21T02:22:57;5.10;;;3.22;;
35424;SDS011;21537;48.226;16.400;2022-08-21T02:25:24;3.63;;;3.15;;
35424;SDS011;21537;48.226;16.400;2022-08-21T02:27:50;4.03;;;3.00;;
35424;SDS011;21537;48.226;16.400;2022-08-21T02:30:21;4.53;;;3.03;;
35424;SDS011;21537;48.226;16.400;2022-08-21T02:32:52;3.15;;;2.80;;
35424;SDS011;21537;48.226;16.400;2022-08-21T02:35:18;3.33;;;2.90;;
35424;SDS011;21537;48.226;16.400;2022-08-21T02:37:46;4.28;;;3.47;;
35424;SDS011;21537;48.226;16.400;2022-08-21T02:40:16;3.88;;;3.05;;
35424;SDS011;21537;48.226;16.400;2022-08-21T02:42:44;3.38;;;2.95;;
35424;SDS011;21537;48.226;16.400;2022-08-21T02:45:10;3.38;;;3.05;;
35424;SDS011;21537;48.226;16.400;2022-08-21T02:47:38;2.92;;;2.63;;
35424;SDS011;21537;48.226;16.400;2022-08-21T02:50:05;3.30;;;3.00;;
35424;SDS011;21537;48.226;16.400;2022-08-21T02:52:31;3.08;;;2.78;;
35424;SDS011;21537;48.226;16.400;2022-08-21T02:54:58;3.28;;;2.97;;
35424;SDS011;21537;48.226;16.400;2022-08-21T02:57:24;4.53;;;3.17;;
35424;SDS011;21537;48.226;16.400;2022-08-21T02:59:50;4.18;;;3.05;;
35424;SDS011;21537;48.226;16.400;2022-08-21T03:02:16;3.05;;;2.75;;
35424;SDS011;21537;48.226;16.400;2022-08-21T03:04:42;3.30;;;3.00;;
35424;SDS011;21537;48.226;16.400;2022-08-21T03:07:07;3.17;;;2.88;;
35424;SDS011;21537;48.226;16.400;2022-08-21T03:09:33;3.33;;;2.55;;
35424;SDS011;21537;48.226;16.400;2022-08-21T03:11:59;3.05;;;2.75;;
35424;SDS011;21537;48.226;16.400;2022-08-21T03:14:25;3.15;;;2.63;;
35424;SDS011;21537;48.226;16.400;2022-08-21T03:16:50;3.05;;;2.75;;
35424;SDS011;21537;48.226;16.400;2022-08-21T03:19:17;3.63;;;2.78;;
35424;SDS011;21537;48.226;16.400;2022-08-21T03:21:42;2.40;;;2.20;;
35424;SDS011;21537;48.226;16.400;2022-08-21T03:24:08;2.47;;;2.10;;
35424;SDS011;21537;48.226;16.400;2022-08-21T03:26:34;3.78;;;2.15;;
35424;SDS011;21537;48.226;16.400;2022-08-21T03:29:00;4.35;;;2.20;;
35424;SDS011;21537;48.226;16.400;2022-08-21T03:31:26;2.00;;;1.80;;
35424;SDS011;21537;48.226;16.400;2022-08-21T03:33:57;2.25;;;2.05;;
35424;SDS011;21537;48.226;16.400;2022-08-21T03:36:23;1.60;;;1.50;;
35424;SDS011;21537;48.226;16.400;2022-08-21T03:38:49;1.70;;;1.60;;
35424;SDS011;21537;48.226;16.400;2022-08-21T03:41:15;1.92;;;1.80;;
35424;SDS011;21537;48.226;16.400;2022-08-21T03:43:41;1.55;;;1.45;;
35424;SDS011;21537;48.226;16.400;2022-08-21T03:46:07;1.70;;;1.60;;
35424;SDS011;21537;48.226;16.400;2022-08-21T03:48:33;2.00;;;1.70;;
35424;SDS011;21537;48.226;16.400;2022-08-21T03:51:01;1.92;;;1.65;;
35424;SDS011;21537;48.226;16.400;2022-08-21T03:53:28;1.80;;;1.70;;
35424;SDS011;21537;48.226;16.400;2022-08-21T03:55:55;1.67;;;1.58;;
35424;SDS011;21537;48.226;16.400;2022-08-21T03:58:22;1.60;;;1.50;;
35424;SDS011;21537;48.226;16.400;2022-08-21T04:00:50;2.25;;;1.70;;
35424;SDS011;21537;48.226;16.400;2022-08-21T04:03:17;1.90;;;1.73;;
35424;SDS011;21537;48.226;16.400;2022-08-21T04:05:45;1.83;;;1.50;;
35424;SDS011;21537;48.226;16.400;2022-08-21T04:08:11;1.70;;;1.60;;
35424;SDS011;21537;48.226;16.400;2022-08-21T04:10:38;1.48;;;1.38;;
35424;SDS011;21537;48.226;16.400;2022-08-21T04:13:06;1.67;;;1.58;;
35424;SDS011;21537;48.226;16.400;2022-08-21T04:15:33;2.45;;;1.80;;
35424;SDS011;21537;48.226;16.400;2022-08-21T04:17:59;2.08;;;1.88;;
35424;SDS011;21537;48.226;16.400;2022-08-21T04:20:25;2.47;;;2.08;;
35424;SDS011;21537;48.226;16.400;2022-08-21T04:22:52;2.25;;;1.67;;
35424;SDS011;21537;48.226;16.400;2022-08-21T04:25:19;2.20;;;2.00;;
35424;SDS011;21537;48.226;16.400;2022-08-21T04:27:46;1.88;;;1.67;;
35424;SDS011;21537;48.226;16.400;2022-08-21T04:30:13;2.15;;;1.75;;
35424;SDS011;21537;48.226;16.400;2022-08-21T04:32:44;2.03;;;1.70;;
35424;SDS011;21537;48.226;16.400;2022-08-21T04:35:16;1.73;;;1.63;;
35424;SDS011;21537;48.226;16.400;2022-08-21T04:37:46;2.88;;;2.35;;
35424;SDS011;21537;48.226;16.400;2022-08-21T04:40:13;2.38;;;2.00;;
35424;SDS011;21537;48.226;16.400;2022-08-21T04:42:42;4.60;;;2.28;;
35424;SDS011;21537;48.226;16.400;2022-08-21T04:45:15;2.25;;;2.05;;
35424;SDS011;21537;48.226;16.400;2022-08-21T04:47:52;3.38;;;2.40;;
35424;SDS011;21537;48.226;16.400;2022-08-21T04:50:20;2.55;;;2.35;;
35424;SDS011;21537;48.226;16.400;2022-08-21T04:53:02;2.72;;;2.40;;
35424;SDS011;21537;48.226;16.400;2022-08-21T04:55:29;8.38;;;2.60;;
35424;SDS011;21537;48.226;16.400;2022-08-21T04:57:55;2.78;;;2.40;;
35424;SDS011;21537;48.226;16.400;2022-08-21T05:00:22;2.67;;;2.35;;
35424;SDS011;21537;48.226;16.400;2022-08-21T05:02:50;2.60;;;2.40;;
35424;SDS011;21537;48.226;16.400;2022-08-21T05:05:19;2.65;;;2.45;;
35424;SDS011;21537;48.226;16.400;2022-08-21T05:07:45;3.15;;;2.50;;
35424;SDS011;21537;48.226;16.400;2022-08-21T05:10:12;3.15;;;2.72;;
35424;SDS011;21537;48.226;16.400;2022-08-21T05:12:39;4.72;;;2.70;;
35424;SDS011;21537;48.226;16.400;2022-08-21T05:15:08;3.95;;;2.60;;
35424;SDS011;21537;48.226;16.400;2022-08-21T05:17:34;2.85;;;2.60;;
35424;SDS011;21537;48.226;16.400;2022-08-21T05:20:00;4.05;;;3.05;;
35424;SDS011;21537;48.226;16.400;2022-08-21T05:22:26;3.65;;;2.60;;
35424;SDS011;21537;48.226;16.400;2022-08-21T05:24:52;3.15;;;2.85;;
35424;SDS011;21537;48.226;16.400;2022-08-21T05:27:18;4.32;;;2.60;;
35424;SDS011;21537;48.226;16.400;2022-08-21T05:29:44;2.92;;;2.67;;
35424;SDS011;21537;48.226;16.400;2022-08-21T05:32:10;3.00;;;2.70;;
35424;SDS011;21537;48.226;16.400;2022-08-21T05:34:37;4.95;;;2.97;;
35424;SDS011;21537;48.226;16.400;2022-08-21T05:37:03;3.55;;;2.90;;
35424;SDS011;21537;48.226;16.400;2022-08-21T05:39:29;3.67;;;3.08;;
35424;SDS011;21537;48.226;16.400;2022-08-21T05:41:55;3.53;;;3.05;;
35424;SDS011;21537;48.226;16.400;2022-08-21T05:44:21;6.28;;;3.00;;
35424;SDS011;21537;48.226;16.400;2022-08-21T05:46:47;3.67;;;3.38;;
35424;SDS011;21537;48.226;16.400;2022-08-21T05:49:13;4.32;;;3.28;;
35424;SDS011;21537;48.226;16.400;2022-08-21T05:51:39;3.30;;;2.85;;
35424;SDS011;21537;48.226;16.400;2022-08-21T05:54:06;3.53;;;3.10;;
35424;SDS011;21537;48.226;16.400;2022-08-21T05:56:32;3.65;;;3.13;;
35424;SDS011;21537;48.226;16.400;2022-08-21T05:58:58;3.47;;;3.17;;
35424;SDS011;21537;48.226;16.400;2022-08-21T06:01:24;3.85;;;2.92;;
35424;SDS011;21537;48.226;16.400;2022-08-21T06:03:50;6.00;;;2.97;;
35424;SDS011;21537;48.226;16.400;2022-08-21T06:06:16;3.08;;;2.67;;
35424;SDS011;21537;48.226;16.400;2022-08-21T06:08:42;3.60;;;3.00;;
35424;SDS011;21537;48.226;16.400;2022-08-21T06:11:08;3.97;;;3.00;;
35424;SDS011;21537;48.226;16.400;2022-08-21T06:13:35;3.85;;;3.30;;
35424;SDS011;21537;48.226;16.400;2022-08-21T06:16:09;3.50;;;3.20;;
35424;SDS011;21537;48.226;16.400;2022-08-21T06:18:37;3.55;;;3.13;;
35424;SDS011;21537;48.226;16.400;2022-08-21T06:21:04;3.67;;;3.33;;
35424;SDS011;21537;48.226;16.400;2022-08-21T06:23:31;3.80;;;3.10;;
35424;SDS011;21537;48.226;16.400;2022-08-21T06:25:58;3.88;;;3.20;;
35424;SDS011;21537;48.226;16.400;2022-08-21T06:28:26;3.30;;;3.00;;
35424;SDS011;21537;48.226;16.400;2022-08-21T06:30:52;4.03;;;3.30;;
35424;SDS011;21537;48.226;16.400;2022-08-21T06:33:18;4.30;;;3.33;;
35424;SDS011;21537;48.226;16.400;2022-08-21T06:35:44;3.72;;;3.28;;
35424;SDS011;21537;48.226;16.400;2022-08-21T06:38:10;3.78;;;3.28;;
35424;SDS011;21537;48.226;16.400;2022-08-21T06:40:36;3.80;;;3.40;;
35424;SDS011;21537;48.226;16.400;2022-08-21T06:43:11;4.68;;;3.03;;
35424;SDS011;21537;48.226;16.400;2022-08-21T06:45:39;4.32;;;3.40;;
35424;SDS011;21537;48.226;16.400;2022-08-21T06:48:05;4.65;;;3.63;;
35424;SDS011;21537;48.226;16.400;2022-08-21T06:50:34;3.75;;;3.45;;
35424;SDS011;21537;48.226;16.400;2022-08-21T06:53:08;3.45;;;3.15;;
35424;SDS011;21537;48.226;16.400;2022-08-21T06:58:02;3.92;;;3.42;;
35424;SDS011;21537;48.226;16.400;2022-08-21T07:00:29;4.25;;;3.38;;
35424;SDS011;21537;48.226;16.400;2022-08-21T07:02:55;3.75;;;3.35;;
35424;SDS011;21537;48.226;16.400;2022-08-21T07:05:21;4.63;;;3.75;;
35424;SDS011;21537;48.226;16.400;2022-08-21T07:07:49;4.00;;;3.60;;
35424;SDS011;21537;48.226;16.400;2022-08-21T07:10:15;5.22;;;3.80;;
35424;SDS011;21537;48.226;16.400;2022-08-21T07:12:43;5.28;;;3.80;;
35424;SDS011;21537;48.226;16.400;2022-08-21T07:15:09;8.18;;;3.45;;
35424;SDS011;21537;48.226;16.400;2022-08-21T07:17:35;4.05;;;3.65;;
35424;SDS011;21537;48.226;16.400;2022-08-21T07:20:01;4.22;;;3.55;;
35424;SDS011;21537;48.226;16.400;2022-08-21T07:22:28;4.30;;;3.70;;
35424;SDS011;21537;48.226;16.400;2022-08-21T07:25:00;7.72;;;3.63;;
35424;SDS011;21537;48.226;16.400;2022-08-21T07:27:27;5.07;;;3.97;;
35424;SDS011;21537;48.226;16.400;2022-08-21T07:29:53;5.75;;;3.88;;
35424;SDS011;21537;48.226;16.400;2022-08-21T07:32:18;5.80;;;4.32;;
35424;SDS011;21537;48.226;16.400;2022-08-21T07:34:47;5.70;;;4.10;;
35424;SDS011;21537;48.226;16.400;2022-08-21T07:37:13;5.32;;;4.00;;
35424;SDS011;21537;48.226;16.400;2022-08-21T07:39:42;4.18;;;3.78;;
35424;SDS011;21537;48.226;16.400;2022-08-21T07:42:09;6.18;;;4.03;;
35424;SDS011;21537;48.226;16.400;2022-08-21T07:44:35;4.43;;;3.90;;
35424;SDS011;21537;48.226;16.400;2022-08-21T07:47:01;4.50;;;3.90;;
35424;SDS011;21537;48.226;16.400;2022-08-21T07:49:27;4.70;;;4.20;;
35424;SDS011;21537;48.226;16.400;2022-08-21T07:51:53;4.28;;;3.67;;
35424;SDS011;21537;48.226;16.400;2022-08-21T07:54:20;3.95;;;3.35;;
35424;SDS011;21537;48.226;16.400;2022-08-21T07:56:45;4.68;;;3.50;;
35424;SDS011;21537;48.226;16.400;2022-08-21T07:59:11;4.47;;;3.78;;
35424;SDS011;21537;48.226;16.400;2022-08-21T08:01:37;4.00;;;3.60;;
35424;SDS011;21537;48.226;16.400;2022-08-21T08:04:03;4.32;;;3.65;;
35424;SDS011;21537;48.226;16.400;2022-08-21T08:06:29;5.22;;;3.85;;
35424;SDS011;21537;48.226;16.400;2022-08-21T08:08:55;4.20;;;3.80;;
35424;SDS011;21537;48.226;16.400;2022-08-21T08:11:21;3.92;;;3.53;;
35424;SDS011;21537;48.226;16.400;2022-08-21T08:13:48;4.35;;;3.90;;
35424;SDS011;21537;48.226;16.400;2022-08-21T08:16:15;5.03;;;4.07;;
35424;SDS011;21537;48.226;16.400;2022-08-21T08:18:42;5.28;;;4.50;;
35424;SDS011;21537;48.226;16.400;2022-08-21T08:21:10;6.72;;;4.35;;
35424;SDS011;21537;48.226;16.400;2022-08-21T08:23:37;6.90;;;4.80;;
35424;SDS011;21537;48.226;16.400;2022-08-21T08:26:04;5.15;;;4.47;;
35424;SDS011;21537;48.226;16.400;2022-08-21T08:28:31;5.18;;;4.47;;
35424;SDS011;21537;48.226;16.400;2022-08-21T08:30:58;5.03;;;4.00;;
35424;SDS011;21537;48.226;16.400;2022-08-21T08:33:25;5.15;;;4.53;;
35424;SDS011;21537;48.226;16.400;2022-08-21T08:35:51;4.53;;;4.05;;
35424;SDS011;21537;48.226;16.400;2022-08-21T08:38:18;4.75;;;4.10;;
35424;SDS011;21537;48.226;16.400;2022-08-21T08:40:47;5.65;;;4.10;;
35424;SDS011;21537;48.226;16.400;2022-08-21T08:43:17;5.97;;;4.93;;
35424;SDS011;21537;48.226;16.400;2022-08-21T08:45:45;4.72;;;4.07;;
35424;SDS011;21537;48.226;16.400;2022-08-21T08:48:18;6.18;;;4.55;;
35424;SDS011;21537;48.226;16.400;2022-08-21T08:50:56;6.90;;;4.43;;
35424;SDS011;21537;48.226;16.400;2022-08-21T08:55:54;5.15;;;4.03;;
35424;SDS011;21537;48.226;16.400;2022-08-21T08:58:28;5.30;;;3.88;;
35424;SDS011;21537;48.226;16.400;2022-08-21T09:00:57;6.25;;;3.60;;
35424;SDS011;21537;48.226;16.400;2022-08-21T09:03:24;4.45;;;3.38;;
35424;SDS011;21537;48.226;16.400;2022-08-21T09:05:55;5.18;;;3.42;;
35424;SDS011;21537;48.226;16.400;2022-08-21T09:14:25;3.90;;;3.20;;
35424;SDS011;21537;48.226;16.400;2022-08-21T09:22:57;4.10;;;3.55;;
35424;SDS011;21537;48.226;16.400;2022-08-21T09:28:35;3.78;;;2.97;;
35424;SDS011;21537;48.226;16.400;2022-08-21T09:31:23;3.83;;;2.85;;
35424;SDS011;21537;48.226;16.400;2022-08-21T09:34:01;3.28;;;2.30;;
35424;SDS011;21537;48.226;16.400;2022-08-21T09:36:48;2.95;;;2.65;;
35424;SDS011;21537;48.226;16.400;2022-08-21T09:39:23;2.75;;;2.50;;
35424;SDS011;21537;48.226;16.400;2022-08-21T09:41:58;2.92;;;2.28;;
35424;SDS011;21537;48.226;16.400;2022-08-21T09:44:31;2.53;;;2.10;;
35424;SDS011;21537;48.226;16.400;2022-08-21T09:47:01;1.85;;;1.63;;
35424;SDS011;21537;48.226;16.400;2022-08-21T09:49:29;2.40;;;2.15;;
35424;SDS011;21537;48.226;16.400;2022-08-21T09:51:57;2.83;;;1.48;;
35424;SDS011;21537;48.226;16.400;2022-08-21T09:54:31;1.60;;;1.40;;
35424;SDS011;21537;48.226;16.400;2022-08-21T09:59:52;2.08;;;1.70;;
35424;SDS011;21537;48.226;16.400;2022-08-21T10:02:29;1.85;;;1.40;;
35424;SDS011;21537;48.226;16.400;2022-08-21T10:04:58;1.90;;;1.75;;
35424;SDS011;21537;48.226;16.400;2022-08-21T10:07:55;1.60;;;1.50;;
35424;SDS011;21537;48.226;16.400;2022-08-21T10:10:31;2.13;;;1.85;;
35424;SDS011;21537;48.226;16.400;2022-08-21T10:15:42;5.10;;;1.30;;
35424;SDS011;21537;48.226;16.400;2022-08-21T10:18:28;1.92;;;1.52;;
35424;SDS011;21537;48.226;16.400;2022-08-21T10:21:21;2.38;;;2.08;;
35424;SDS011;21537;48.226;16.400;2022-08-21T10:30:12;2.65;;;2.40;;
35424;SDS011;21537;48.226;16.400;2022-08-21T10:35:23;2.80;;;2.60;;
35424;SDS011;21537;48.226;16.400;2022-08-21T10:41:00;3.22;;;2.92;;
35424;SDS011;21537;48.226;16.400;2022-08-21T10:49:48;3.88;;;3.15;;
35424;SDS011;21537;48.226;16.400;2022-08-21T10:54:50;3.53;;;2.83;;
35424;SDS011;21537;48.226;16.400;2022-08-21T10:57:39;4.18;;;3.15;;
35424;SDS011;21537;48.226;16.400;2022-08-21T11:00:16;2.50;;;2.28;;
35424;SDS011;21537;48.226;16.400;2022-08-21T11:05:14;2.30;;;2.10;;
35424;SDS011;21537;48.226;16.400;2022-08-21T11:08:45;2.85;;;2.17;;
35424;SDS011;21537;48.226;16.400;2022-08-21T11:14:02;1.95;;;1.50;;
35424;SDS011;21537;48.226;16.400;2022-08-21T11:16:49;1.73;;;1.30;;
35424;SDS011;21537;48.226;16.400;2022-08-21T11:22:18;2.58;;;1.65;;
35424;SDS011;21537;48.226;16.400;2022-08-21T11:25:17;2.22;;;1.50;;
35424;SDS011;21537;48.226;16.400;2022-08-21T11:27:47;3.40;;;1.40;;
35424;SDS011;21537;48.226;16.400;2022-08-21T11:30:24;1.85;;;1.20;;
35424;SDS011;21537;48.226;16.400;2022-08-21T11:33:04;2.58;;;1.25;;
35424;SDS011;21537;48.226;16.400;2022-08-21T11:35:59;5.10;;;3.45;;
35424;SDS011;21537;48.226;16.400;2022-08-21T11:38:41;2.50;;;1.77;;
35424;SDS011;21537;48.226;16.400;2022-08-21T11:41:22;2.60;;;1.80;;
35424;SDS011;21537;48.226;16.400;2022-08-21T11:46:38;1.83;;;1.42;;
35424;SDS011;21537;48.226;16.400;2022-08-21T11:52:35;1.20;;;1.10;;
35424;SDS011;21537;48.226;16.400;2022-08-21T11:55:12;4.82;;;1.58;;
35424;SDS011;21537;48.226;16.400;2022-08-21T11:57:52;1.52;;;1.42;;
35424;SDS011;21537;48.226;16.400;2022-08-21T12:00:33;1.60;;;1.40;;
35424;SDS011;21537;48.226;16.400;2022-08-21T12:03:22;1.92;;;1.30;;
35424;SDS011;21537;48.226;16.400;2022-08-21T12:05:53;2.72;;;1.50;;
35424;SDS011;21537;48.226;16.400;2022-08-21T12:08:46;2.00;;;1.55;;
35424;SDS011;21537;48.226;16.400;2022-08-21T12:11:24;2.42;;;1.20;;
35424;SDS011;21537;48.226;16.400;2022-08-21T12:24:20;2.40;;;1.50;;
35424;SDS011;21537;48.226;16.400;2022-08-21T12:26:57;1.77;;;1.58;;
35424;SDS011;21537;48.226;16.400;2022-08-21T12:34:24;2.58;;;1.42;;
35424;SDS011;21537;48.226;16.400;2022-08-21T12:36:58;1.50;;;1.40;;
35424;SDS011;21537;48.226;16.400;2022-08-21T12:39:29;3.28;;;1.75;;
35424;SDS011;21537;48.226;16.400;2022-08-21T12:42:04;1.98;;;1.70;;
35424;SDS011;21537;48.226;16.400;2022-08-21T12:44:42;1.40;;;1.30;;
35424;SDS011;21537;48.226;16.400;2022-08-21T12:47:17;1.50;;;1.27;;
35424;SDS011;21537;48.226;16.400;2022-08-21T12:52:57;3.97;;;1.73;;
35424;SDS011;21537;48.226;16.400;2022-08-21T12:55:28;1.70;;;1.60;;
35424;SDS011;21537;48.226;16.400;2022-08-21T12:57:56;2.92;;;1.92;;
35424;SDS011;21537;48.226;16.400;2022-08-21T13:00:24;1.73;;;1.50;;
35424;SDS011;21537;48.226;16.400;2022-08-21T13:02:51;3.22;;;1.63;;
35424;SDS011;21537;48.226;16.400;2022-08-21T13:05:23;2.10;;;1.90;;
35424;SDS011;21537;48.226;16.400;2022-08-21T13:08:07;5.00;;;2.10;;
35424;SDS011;21537;48.226;16.400;2022-08-21T13:10:35;1.80;;;1.67;;
35424;SDS011;21537;48.226;16.400;2022-08-21T13:13:06;3.72;;;1.55;;
35424;SDS011;21537;48.226;16.400;2022-08-21T13:15:37;3.83;;;1.40;;
35424;SDS011;21537;48.226;16.400;2022-08-21T13:18:06;1.90;;;1.60;;
35424;SDS011;21537;48.226;16.400;2022-08-21T13:20:36;2.55;;;1.60;;
35424;SDS011;21537;48.226;16.400;2022-08-21T13:25:44;2.70;;;1.83;;
35424;SDS011;21537;48.226;16.400;2022-08-21T13:28:10;2.05;;;1.85;;
35424;SDS011;21537;48.226;16.400;2022-08-21T13:30:44;2.58;;;1.60;;
35424;SDS011;21537;48.226;16.400;2022-08-21T13:33:12;2.83;;;1.83;;
35424;SDS011;21537;48.226;16.400;2022-08-21T13:35:48;3.47;;;1.85;;
35424;SDS011;21537;48.226;16.400;2022-08-21T13:38:22;2.05;;;1.67;;
35424;SDS011;21537;48.226;16.400;2022-08-21T13:40:56;2.60;;;1.67;;
35424;SDS011;21537;48.226;16.400;2022-08-21T13:43:36;2.53;;;2.08;;
35424;SDS011;21537;48.226;16.400;2022-08-21T13:46:06;2.33;;;1.42;;
35424;SDS011;21537;48.226;16.400;2022-08-21T13:48:35;2.83;;;1.67;;
35424;SDS011;21537;48.226;16.400;2022-08-21T13:51:02;4.00;;;1.77;;
35424;SDS011;21537;48.226;16.400;2022-08-21T13:55:54;2.92;;;1.70;;
35424;SDS011;21537;48.226;16.400;2022-08-21T13:58:25;3.15;;;1.83;;
35424;SDS011;21537;48.226;16.400;2022-08-21T14:00:53;4.22;;;1.90;;
35424;SDS011;21537;48.226;16.400;2022-08-21T14:03:27;2.97;;;2.00;;
35424;SDS011;21537;48.226;16.400;2022-08-21T14:05:57;2.10;;;1.90;;
35424;SDS011;21537;48.226;16.400;2022-08-21T14:10:54;2.75;;;2.13;;
35424;SDS011;21537;48.226;16.400;2022-08-21T14:16:03;3.95;;;2.08;;
35424;SDS011;21537;48.226;16.400;2022-08-21T14:21:22;2.53;;;2.00;;
35424;SDS011;21537;48.226;16.400;2022-08-21T14:26:42;3.35;;;2.25;;
35424;SDS011;21537;48.226;16.400;2022-08-21T14:29:32;3.35;;;2.15;;
35424;SDS011;21537;48.226;16.400;2022-08-21T14:32:12;2.53;;;2.10;;
35424;SDS011;21537;48.226;16.400;2022-08-21T14:34:46;5.18;;;2.00;;
35424;SDS011;21537;48.226;16.400;2022-08-21T14:37:11;8.27;;;2.50;;
35424;SDS011;21537;48.226;16.400;2022-08-21T14:39:37;3.60;;;2.15;;
35424;SDS011;21537;48.226;16.400;2022-08-21T14:42:03;3.50;;;2.42;;
35424;SDS011;21537;48.226;16.400;2022-08-21T14:44:29;4.55;;;2.55;;
35424;SDS011;21537;48.226;16.400;2022-08-21T14:46:58;3.00;;;2.22;;
35424;SDS011;21537;48.226;16.400;2022-08-21T14:49:25;6.03;;;2.53;;
35424;SDS011;21537;48.226;16.400;2022-08-21T14:51:53;5.93;;;2.13;;
35424;SDS011;21537;48.226;16.400;2022-08-21T14:54:24;4.00;;;2.50;;
35424;SDS011;21537;48.226;16.400;2022-08-21T14:56:52;4.78;;;2.60;;
35424;SDS011;21537;48.226;16.400;2022-08-21T14:59:19;5.00;;;2.75;;
35424;SDS011;21537;48.226;16.400;2022-08-21T15:01:45;3.90;;;2.65;;
35424;SDS011;21537;48.226;16.400;2022-08-21T15:04:11;4.30;;;2.75;;
35424;SDS011;21537;48.226;16.400;2022-08-21T15:06:37;5.05;;;3.28;;
35424;SDS011;21537;48.226;16.400;2022-08-21T15:09:03;5.28;;;2.78;;
35424;SDS011;21537;48.226;16.400;2022-08-21T15:11:30;6.53;;;3.65;;
35424;SDS011;21537;48.226;16.400;2022-08-21T15:13:59;4.60;;;2.80;;
35424;SDS011;21537;48.226;16.400;2022-08-21T15:16:28;4.50;;;3.13;;
35424;SDS011;21537;48.226;16.400;2022-08-21T15:18:56;5.15;;;3.25;;
35424;SDS011;21537;48.226;16.400;2022-08-21T15:21:22;4.28;;;2.78;;
35424;SDS011;21537;48.226;16.400;2022-08-21T15:23:48;7.13;;;3.05;;
35424;SDS011;21537;48.226;16.400;2022-08-21T15:26:14;5.55;;;3.17;;
35424;SDS011;21537;48.226;16.400;2022-08-21T15:28:40;6.13;;;3.08;;
35424;SDS011;21537;48.226;16.400;2022-08-21T15:31:06;6.18;;;3.20;;
35424;SDS011;21537;48.226;16.400;2022-08-21T15:33:32;3.83;;;3.03;;
35424;SDS011;21537;48.226;16.400;2022-08-21T15:35:58;3.88;;;3.05;;
35424;SDS011;21537;48.226;16.400;2022-08-21T15:38:24;5.05;;;3.35;;
35424;SDS011;21537;48.226;16.400;2022-08-21T15:40:51;3.78;;;3.13;;
35424;SDS011;21537;48.226;16.400;2022-08-21T15:43:22;5.90;;;3.08;;
35424;SDS011;21537;48.226;16.400;2022-08-21T15:45:53;6.63;;;3.05;;
35424;SDS011;21537;48.226;16.400;2022-08-21T15:48:19;4.10;;;2.90;;
35424;SDS011;21537;48.226;16.400;2022-08-21T15:50:45;4.35;;;3.25;;
35424;SDS011;21537;48.226;16.400;2022-08-21T15:53:11;3.70;;;3.15;;
35424;SDS011;21537;48.226;16.400;2022-08-21T15:55:37;4.63;;;3.10;;
35424;SDS011;21537;48.226;16.400;2022-08-21T15:58:03;4.07;;;2.90;;
35424;SDS011;21537;48.226;16.400;2022-08-21T16:00:30;5.30;;;3.15;;
35424;SDS011;21537;48.226;16.400;2022-08-21T16:02:59;4.35;;;2.75;;
35424;SDS011;21537;48.226;16.400;2022-08-21T16:05:27;4.15;;;3.00;;
35424;SDS011;21537;48.226;16.400;2022-08-21T16:07:53;5.55;;;3.10;;
35424;SDS011;21537;48.226;16.400;2022-08-21T16:10:20;5.53;;;2.72;;
35424;SDS011;21537;48.226;16.400;2022-08-21T16:12:49;7.55;;;3.65;;
35424;SDS011;21537;48.226;16.400;2022-08-21T16:15:18;3.67;;;3.10;;
35424;SDS011;21537;48.226;16.400;2022-08-21T16:17:45;7.78;;;3.13;;
35424;SDS011;21537;48.226;16.400;2022-08-21T16:20:18;4.05;;;3.10;;
35424;SDS011;21537;48.226;16.400;2022-08-21T16:22:46;5.03;;;3.15;;